createdAt,value
2019-04-26T00:02:51.257Z,1.13
2019-04-26T00:05:58.167Z,1.53
2019-04-26T00:09:31.286Z,0.90
2019-04-26T00:12:55.075Z,1.30
2019-04-26T00:16:26.795Z,1.17
2019-04-26T00:19:33.685Z,1.13
2019-04-26T00:22:40.812Z,1.20
2019-04-26T00:25:47.744Z,0.80
2019-04-26T00:28:54.620Z,1.20
2019-04-26T00:32:01.642Z,1.20
2019-04-26T00:35:08.498Z,1.00
2019-04-26T00:38:16.072Z,1.00
2019-04-26T00:41:23.136Z,1.00
2019-04-26T00:44:29.988Z,1.00
2019-04-26T00:47:38.092Z,1.10
2019-04-26T00:50:46.789Z,0.73
2019-04-26T00:53:54.479Z,1.60
2019-04-26T00:57:02.318Z,4.43
2019-04-26T01:00:10.899Z,1.30
2019-04-26T01:03:18.572Z,1.10
2019-04-26T01:06:27.926Z,1.30
2019-04-26T01:09:34.765Z,1.37
2019-04-26T01:12:41.888Z,0.90
2019-04-26T01:15:48.696Z,0.70
2019-04-26T01:18:55.626Z,1.07
2019-04-26T01:22:06.287Z,1.00
2019-04-26T01:25:58.569Z,1.07
2019-04-26T01:29:08.530Z,1.20
2019-04-26T01:32:16.514Z,1.00
2019-04-26T01:35:24.196Z,1.47
2019-04-26T01:38:31.870Z,2.43
2019-04-26T01:41:44.326Z,1.20
2019-04-26T01:44:58.264Z,1.70
2019-04-26T01:48:28.011Z,2.00
2019-04-26T01:51:40.424Z,1.20
2019-04-26T01:54:47.503Z,1.40
2019-04-26T01:57:54.967Z,1.50
2019-04-26T02:01:10.813Z,1.27
2019-04-26T02:04:17.679Z,1.57
2019-04-26T02:07:39.954Z,1.20
2019-04-26T02:10:46.773Z,1.87
2019-04-26T02:13:53.713Z,1.30
2019-04-26T02:17:01.808Z,1.60
2019-04-26T02:20:09.587Z,1.30
2019-04-26T02:23:21.752Z,1.20
2019-04-26T02:26:35.858Z,1.40
2019-04-26T02:29:42.714Z,1.30
2019-04-26T02:32:49.619Z,3.23
2019-04-26T02:35:56.567Z,1.70
2019-04-26T02:39:08.102Z,2.20
2019-04-26T02:42:43.581Z,1.60
2019-04-26T02:46:15.775Z,1.70
2019-04-26T02:49:45.390Z,1.50
2019-04-26T02:53:05.138Z,1.70
2019-04-26T02:56:21.555Z,1.83
2019-04-26T02:59:44.259Z,1.37
2019-04-26T03:03:04.161Z,2.03
2019-04-26T03:06:11.353Z,1.73
2019-04-26T03:09:19.074Z,1.80
2019-04-26T03:12:30.954Z,2.10
2019-04-26T03:16:03.663Z,1.77
2019-04-26T03:19:28.324Z,1.67
2019-04-26T03:23:15.736Z,1.60
2019-04-26T03:26:43.406Z,1.73
2019-04-26T03:30:21.456Z,1.70
2019-04-26T03:33:53.910Z,1.67
2019-04-26T03:37:44.517Z,1.97
2019-04-26T03:41:01.027Z,1.80
2019-04-26T03:44:29.142Z,1.73
2019-04-26T03:47:42.769Z,1.90
2019-04-26T03:51:01.210Z,1.93
2019-04-26T03:54:14.556Z,1.80
2019-04-26T03:57:42.661Z,2.20
2019-04-26T04:00:54.952Z,2.27
2019-04-26T04:04:20.833Z,2.17
2019-04-26T04:07:39.464Z,2.10
2019-04-26T04:10:49.512Z,2.37
2019-04-26T04:14:22.294Z,2.57
2019-04-26T04:17:45.413Z,2.27
2019-04-26T04:21:29.562Z,2.30
2019-04-26T04:24:45.428Z,1.73
2019-04-26T04:28:20.113Z,2.30
2019-04-26T04:31:33.296Z,2.23
2019-04-26T04:34:45.553Z,2.30
2019-04-26T04:38:09.771Z,2.50
2019-04-26T04:41:29.361Z,2.73
2019-04-26T04:45:26.789Z,2.90
2019-04-26T04:49:05.918Z,2.90
2019-04-26T04:52:33.629Z,1.57
2019-04-26T04:56:02.680Z,2.10
2019-04-26T04:59:13.199Z,2.60
2019-04-26T05:02:46.793Z,2.43
2019-04-26T05:06:15.553Z,1.67
2019-04-26T05:09:29.787Z,2.00
2019-04-26T05:12:47.895Z,2.17
2019-04-26T05:16:20.425Z,2.07
2019-04-26T05:20:04.127Z,2.27
2019-04-26T05:24:08.088Z,2.10
2019-04-26T05:28:15.864Z,2.17
2019-04-26T05:31:32.536Z,1.90
2019-04-26T05:34:50.769Z,2.00
2019-04-26T05:38:17.965Z,2.10
2019-04-26T05:41:49.550Z,2.03
2019-04-26T05:45:56.086Z,1.60
2019-04-26T05:50:02.670Z,1.80
2019-04-26T05:54:18.396Z,1.90
2019-04-26T05:57:54.815Z,2.07
2019-04-26T06:02:25.538Z,2.00
2019-04-26T06:05:47.601Z,1.93
2019-04-26T06:09:42.971Z,2.37
2019-04-26T06:13:08.612Z,2.20
2019-04-26T06:16:52.157Z,2.40
2019-04-26T06:20:23.622Z,2.10
2019-04-26T06:24:22.575Z,2.63
2019-04-26T06:27:54.940Z,2.43
2019-04-26T06:31:29.781Z,2.10
2019-04-26T06:35:01.458Z,2.23
2019-04-26T06:39:06.093Z,2.57
2019-04-26T06:42:37.336Z,2.83
2019-04-26T06:46:29.946Z,3.33
2019-04-26T06:50:07.901Z,3.50
2019-04-26T06:53:32.395Z,3.40
2019-04-26T06:57:16.887Z,2.97
2019-04-26T07:00:29.803Z,3.10
2019-04-26T07:04:09.992Z,3.00
2019-04-26T07:07:43.665Z,2.90
2019-04-26T07:11:25.781Z,3.20
2019-04-26T07:14:59.486Z,3.03
2019-04-26T07:19:09.580Z,3.40
2019-04-26T07:22:53.461Z,3.37
2019-04-26T07:26:53.629Z,3.60
2019-04-26T07:30:51.303Z,3.60
2019-04-26T07:34:29.716Z,3.33
2019-04-26T07:38:11.937Z,3.43
2019-04-26T07:41:47.459Z,3.40
2019-04-26T07:45:38.283Z,3.40
2019-04-26T07:49:24.684Z,2.40
2019-04-26T07:53:14.079Z,2.07
2019-04-26T07:56:49.757Z,4.20
2019-04-26T08:00:17.140Z,1.87
2019-04-26T08:03:50.135Z,1.80
2019-04-26T08:07:06.074Z,1.77
2019-04-26T08:10:17.429Z,1.47
2019-04-26T08:13:27.016Z,2.03
2019-04-26T08:16:55.996Z,2.30
2019-04-26T08:20:34.095Z,2.50
2019-04-26T08:23:56.551Z,2.20
2019-04-26T08:27:22.833Z,1.77
2019-04-26T08:30:24.248Z,2.93
2019-04-26T08:33:48.220Z,2.60
2019-04-26T08:37:01.805Z,2.47
2019-04-26T08:40:09.011Z,2.80
2019-04-26T08:43:47.732Z,2.60
2019-04-26T08:47:15.126Z,3.40
2019-04-26T08:50:28.543Z,2.63
2019-04-26T08:53:38.439Z,3.00
2019-04-26T08:56:48.283Z,3.93
2019-04-26T08:59:57.557Z,3.10
2019-04-26T09:03:28.007Z,3.70
2019-04-26T09:06:48.115Z,3.17
2019-04-26T09:10:01.367Z,3.23
2019-04-26T09:13:08.739Z,3.30
2019-04-26T09:16:19.677Z,2.90
2019-04-26T09:19:30.477Z,2.77
2019-04-26T09:22:45.951Z,3.10
2019-04-26T09:25:59.392Z,3.60
2019-04-26T09:29:21.014Z,2.50
2019-04-26T09:32:33.640Z,3.10
2019-04-26T09:35:40.565Z,3.27
2019-04-26T09:38:47.421Z,3.17
2019-04-26T09:41:56.215Z,3.03
2019-04-26T09:45:25.867Z,3.40
2019-04-26T09:48:50.423Z,3.17
2019-04-26T09:51:57.387Z,3.30
2019-04-26T09:55:04.730Z,3.50
2019-04-26T09:58:11.643Z,3.53
2019-04-26T10:01:19.645Z,3.70
2019-04-26T10:04:27.165Z,4.17
2019-04-26T10:07:37.556Z,4.00
2019-04-26T10:10:42.622Z,4.13
2019-04-26T10:14:07.415Z,4.10
2019-04-26T10:17:17.493Z,3.83
2019-04-26T10:20:24.508Z,4.00
2019-04-26T10:23:31.360Z,4.53
2019-04-26T10:26:38.250Z,4.10
2019-04-26T10:29:45.150Z,5.23
2019-04-26T10:32:51.994Z,4.43
2019-04-26T10:35:58.858Z,4.87
2019-04-26T10:39:09.399Z,4.50
2019-04-26T10:42:16.928Z,4.93
2019-04-26T10:45:23.945Z,4.73
2019-04-26T10:48:30.825Z,5.10
2019-04-26T10:51:42.011Z,4.73
2019-04-26T10:54:56.048Z,4.33
2019-04-26T10:58:14.960Z,5.17
2019-04-26T11:01:21.938Z,4.37
2019-04-26T11:04:30.051Z,4.60
2019-04-26T11:07:36.969Z,5.00
2019-04-26T11:10:48.874Z,5.00
2019-04-26T11:13:52.339Z,4.67
2019-04-26T11:16:59.335Z,3.93
2019-04-26T11:20:10.192Z,4.40
2019-04-26T11:23:14.855Z,5.17
2019-04-26T11:26:21.760Z,5.07
2019-04-26T11:29:29.976Z,5.10
2019-04-26T11:32:38.169Z,4.77
2019-04-26T11:35:45.143Z,4.70
2019-04-26T11:38:52.059Z,4.90
2019-04-26T11:41:59.003Z,4.20
2019-04-26T11:45:10.799Z,4.43
2019-04-26T11:48:16.804Z,3.87
2019-04-26T11:51:27.449Z,3.83
2019-04-26T11:54:32.280Z,4.27
2019-04-26T11:57:40.057Z,4.60
2019-04-26T12:00:52.157Z,4.90
2019-04-26T12:04:12.035Z,4.97
2019-04-26T12:07:25.213Z,5.27
2019-04-26T12:10:32.152Z,4.10
2019-04-26T12:13:39.011Z,4.70
2019-04-26T12:16:49.226Z,4.93
2019-04-26T12:19:54.494Z,4.63
2019-04-26T12:23:01.385Z,4.83
2019-04-26T12:26:08.271Z,4.97
2019-04-26T12:29:15.633Z,4.67
2019-04-26T12:32:22.619Z,4.70
2019-04-26T12:35:30.121Z,5.07
2019-04-26T12:38:37.119Z,4.90
2019-04-26T12:41:43.959Z,5.23
2019-04-26T12:45:01.287Z,4.83
2019-04-26T12:48:12.408Z,3.90
2019-04-26T12:51:18.440Z,5.00
2019-04-26T12:54:25.357Z,4.57
2019-04-26T12:57:32.210Z,4.80
2019-04-26T13:00:52.774Z,4.50
2019-04-26T13:04:03.951Z,5.40
2019-04-26T13:07:23.451Z,5.00
2019-04-26T13:10:44.885Z,5.60
2019-04-26T13:13:58.608Z,5.83
2019-04-26T13:17:11.604Z,5.57
2019-04-26T13:20:18.414Z,6.00
2019-04-26T13:23:29.381Z,5.17
2019-04-26T13:26:34.770Z,6.10
2019-04-26T13:29:42.282Z,6.67
2019-04-26T13:32:52.903Z,7.40
2019-04-26T13:36:04.923Z,7.00
2019-04-26T13:39:13.360Z,6.67
2019-04-26T13:42:19.320Z,5.77
2019-04-26T13:45:34.837Z,5.60
2019-04-26T13:48:54.776Z,5.30
2019-04-26T13:52:01.684Z,4.90
2019-04-26T13:55:08.712Z,5.30
2019-04-26T13:58:20.413Z,5.27
2019-04-26T14:01:24.248Z,4.80
2019-04-26T14:04:31.154Z,3.57
2019-04-26T14:07:38.053Z,4.63
2019-04-26T14:10:45.501Z,4.23
2019-04-26T14:13:55.400Z,4.10
2019-04-26T14:17:02.015Z,4.50
2019-04-26T14:20:08.833Z,4.40
2019-04-26T14:23:33.586Z,4.13
2019-04-26T14:26:43.133Z,3.93
2019-04-26T14:29:50.023Z,3.50
2019-04-26T14:32:57.322Z,3.67
2019-04-26T14:36:17.104Z,3.43
2019-04-26T14:39:14.908Z,3.37
2019-04-26T14:42:33.543Z,3.00
2019-04-26T14:45:31.187Z,2.87
2019-04-26T14:48:40.623Z,3.30
2019-04-26T14:51:46.974Z,3.10
2019-04-26T14:54:55.204Z,2.70
2019-04-26T14:58:02.117Z,2.90
2019-04-26T15:01:12.488Z,3.50
2019-04-26T15:04:36.310Z,3.20
2019-04-26T15:07:51.086Z,2.73
2019-04-26T15:10:57.673Z,3.13
2019-04-26T15:14:00.419Z,3.40
2019-04-26T15:17:07.279Z,3.40
2019-04-26T15:20:16.716Z,3.27
2019-04-26T15:23:23.854Z,3.47
2019-04-26T15:26:32.719Z,3.40
2019-04-26T15:29:39.668Z,3.47
2019-04-26T15:32:46.519Z,3.57
2019-04-26T15:35:53.468Z,3.40
2019-04-26T15:39:02.699Z,3.17
2019-04-26T15:42:31.752Z,3.70
2019-04-26T15:46:13.469Z,3.50
2019-04-26T15:49:34.731Z,3.40
2019-04-26T15:52:40.033Z,3.37
2019-04-26T15:55:46.987Z,3.50
2019-04-26T15:58:53.929Z,3.13
2019-04-26T16:02:02.323Z,3.60
2019-04-26T16:05:09.417Z,3.70
2019-04-26T16:08:16.319Z,3.40
2019-04-26T16:11:23.143Z,3.30
2019-04-26T16:14:31.306Z,3.83
2019-04-26T16:17:40.187Z,3.73
2019-04-26T16:20:47.170Z,3.50
2019-04-26T16:23:55.343Z,3.40
2019-04-26T16:27:02.763Z,3.63
2019-04-26T16:30:37.499Z,3.77
2019-04-26T16:33:44.851Z,5.67
2019-04-26T16:36:52.611Z,4.00
2019-04-26T16:39:59.609Z,10.87
2019-04-26T16:43:06.564Z,3.37
2019-04-26T16:49:23.432Z,3.20
2019-04-26T16:52:30.401Z,3.10
2019-04-26T16:55:48.351Z,3.20
2019-04-26T16:58:45.873Z,3.30
2019-04-26T17:01:53.621Z,3.40
2019-04-26T17:05:04.561Z,3.43
2019-04-26T17:08:10.445Z,3.37
2019-04-26T17:09:50.454Z,4.07
2019-04-26T17:11:17.502Z,3.77
2019-04-26T17:14:25.003Z,3.90
2019-04-26T17:17:33.144Z,3.90
2019-04-26T17:20:40.544Z,3.67
2019-04-26T17:24:09.566Z,3.47
2019-04-26T17:27:15.968Z,3.60
2019-04-26T17:30:24.843Z,3.43
2019-04-26T17:33:32.643Z,3.20
2019-04-26T17:36:39.626Z,4.77
2019-04-26T17:39:47.563Z,3.53
2019-04-26T17:42:55.085Z,3.87
2019-04-26T17:46:01.974Z,3.70
2019-04-26T17:49:10.955Z,3.50
2019-04-26T17:52:17.607Z,3.17
2019-04-26T17:55:24.625Z,3.67
2019-04-26T17:58:34.334Z,3.03
2019-04-26T18:01:47.465Z,3.53
2019-04-26T18:04:58.927Z,3.73
2019-04-26T18:07:59.781Z,3.77
2019-04-26T18:11:07.038Z,4.93
2019-04-26T18:14:21.229Z,4.00
2019-04-26T18:17:50.842Z,4.07
2019-04-26T18:21:18.865Z,4.47
2019-04-26T18:24:27.568Z,3.47
2019-04-26T18:27:36.006Z,4.50
2019-04-26T18:30:46.199Z,3.73
2019-04-26T18:33:54.887Z,3.63
2019-04-26T18:37:01.878Z,4.30
2019-04-26T18:40:08.374Z,4.23
2019-04-26T18:43:18.897Z,4.37
2019-04-26T18:46:40.508Z,4.77
2019-04-26T18:49:47.555Z,5.23
2019-04-26T18:53:15.024Z,4.93
2019-04-26T18:56:22.043Z,5.07
2019-04-26T18:59:28.933Z,4.70
2019-04-26T19:02:36.010Z,5.33
2019-04-26T19:05:43.200Z,5.70
2019-04-26T19:08:52.591Z,6.17
2019-04-26T19:11:58.991Z,5.37
2019-04-26T19:15:13.814Z,5.23
2019-04-26T19:18:42.403Z,5.37
2019-04-26T19:21:54.321Z,5.43
2019-04-26T19:25:02.060Z,5.83
2019-04-26T19:28:09.044Z,5.43
2019-04-26T19:31:19.210Z,5.50
2019-04-26T19:34:25.996Z,5.53
2019-04-26T19:37:36.743Z,6.17
2019-04-26T19:40:46.357Z,5.73
2019-04-26T19:43:52.044Z,5.17
2019-04-26T19:47:15.346Z,5.73
2019-04-26T19:50:28.747Z,6.03
2019-04-26T19:53:47.320Z,6.33
2019-04-26T19:57:03.937Z,6.50
2019-04-26T20:00:11.656Z,6.17
2019-04-26T20:03:18.492Z,5.73
2019-04-26T20:06:26.880Z,6.30
2019-04-26T20:09:33.917Z,6.53
2019-04-26T20:12:41.340Z,5.90
2019-04-26T20:15:48.354Z,6.43
2019-04-26T20:18:55.320Z,6.97
2019-04-26T20:22:03.612Z,20.87
2019-04-26T20:25:11.920Z,7.30
2019-04-26T20:28:18.932Z,8.63
2019-04-26T20:31:47.543Z,7.50
2019-04-26T20:35:13.221Z,6.80
2019-04-26T20:38:20.369Z,6.90
2019-04-26T20:41:27.352Z,5.70
2019-04-26T20:44:48.117Z,6.33
2019-04-26T20:47:46.790Z,6.27
2019-04-26T20:50:52.055Z,5.83
2019-04-26T20:53:59.862Z,5.70
2019-04-26T20:57:06.659Z,6.00
2019-04-26T21:00:13.555Z,5.63
2019-04-26T21:03:24.738Z,5.93
2019-04-26T21:06:29.254Z,5.73
2019-04-26T21:09:40.817Z,6.27
2019-04-26T21:12:47.459Z,8.63
2019-04-26T21:15:58.321Z,5.90
2019-04-26T21:19:03.314Z,6.13
2019-04-26T21:22:10.157Z,6.80
2019-04-26T21:25:27.826Z,6.53
2019-04-26T21:28:42.739Z,6.40
2019-04-26T21:32:09.648Z,6.30
2019-04-26T21:35:20.462Z,6.90
2019-04-26T21:38:52.995Z,5.67
2019-04-26T21:42:00.246Z,5.80
2019-04-26T21:45:07.895Z,6.90
2019-04-26T21:48:15.151Z,6.57
2019-04-26T21:51:22.978Z,6.93
2019-04-26T21:54:30.164Z,7.03
2019-04-26T21:57:36.994Z,6.83
2019-04-26T22:01:18.678Z,7.00
2019-04-26T22:04:24.483Z,7.50
2019-04-26T22:07:32.832Z,6.93
2019-04-26T22:10:44.793Z,7.37
2019-04-26T22:14:00.313Z,7.07
2019-04-26T22:17:25.119Z,7.00
2019-04-26T22:20:39.684Z,6.60
2019-04-26T22:24:17.524Z,7.23
2019-04-26T22:27:37.483Z,7.50
2019-04-26T22:30:44.340Z,7.40
2019-04-26T22:33:53.072Z,7.47
2019-04-26T22:37:01.817Z,7.23
2019-04-26T22:40:10.506Z,7.40
2019-04-26T22:43:36.225Z,7.40
2019-04-26T22:46:58.753Z,7.60
2019-04-26T22:50:06.862Z,7.93
2019-04-26T22:53:13.737Z,9.03
2019-04-26T22:56:20.554Z,9.20
2019-04-26T22:59:27.418Z,8.63
2019-04-26T23:02:34.222Z,8.30
2019-04-26T23:05:41.111Z,8.67
2019-04-26T23:08:47.964Z,8.17
2019-04-26T23:12:16.386Z,8.33
2019-04-26T23:15:43.130Z,8.30
2019-04-26T23:19:07.564Z,8.30
2019-04-26T23:22:14.472Z,7.57
2019-04-26T23:25:21.501Z,8.07
2019-04-26T23:28:34.304Z,8.23
2019-04-26T23:31:37.445Z,8.43
2019-04-26T23:34:44.556Z,7.93
2019-04-26T23:37:51.369Z,8.17
2019-04-26T23:41:01.131Z,8.63
2019-04-26T23:44:06.929Z,8.90
2019-04-26T23:47:22.587Z,7.33
2019-04-26T23:50:25.647Z,8.07
2019-04-26T23:53:30.812Z,8.70
2019-04-26T23:56:37.632Z,8.10
2019-04-26T23:59:45.335Z,8.97
